sensor_id;sensor_type;location;lat;lon;timestamp;pressure;altitude;pressure_sealevel;temperature;humidity
10606;BME280;5350;42.698;23.148;2023-01-24T00:01:40;94542.66;;;4.66;100.00
10606;BME280;5350;42.698;23.148;2023-01-24T00:04:07;94549.59;;;4.60;100.00
10606;BME280;5350;42.698;23.148;2023-01-24T00:06:35;94546.63;;;4.57;100.00
10606;BME280;5350;42.698;23.148;2023-01-24T00:09:01;94550.97;;;4.63;100.00
10606;BME280;5350;42.698;23.148;2023-01-24T00:11:28;94545.06;;;4.56;100.00
10606;BME280;5350;42.698;23.148;2023-01-24T00:13:55;94550.41;;;4.61;100.00
10606;BME280;5350;42.698;23.148;2023-01-24T00:16:22;94556.63;;;4.60;100.00
10606;BME280;5350;42.698;23.148;2023-01-24T00:18:49;94552.44;;;4.59;100.00
10606;BME280;5350;42.698;23.148;2023-01-24T00:21:18;94557.66;;;4.59;100.00
10606;BME280;5350;42.698;23.148;2023-01-24T00:23:48;94559.91;;;4.55;100.00
10606;BME280;5350;42.698;23.148;2023-01-24T00:26:16;94556.28;;;4.45;100.00
10606;BME280;5350;42.698;23.148;2023-01-24T00:28:43;94555.38;;;4.51;100.00
10606;BME280;5350;42.698;23.148;2023-01-24T00:31:11;94558.78;;;4.51;100.00
10606;BME280;5350;42.698;23.148;2023-01-24T00:33:37;94549.41;;;4.50;100.00
10606;BME280;5350;42.698;23.148;2023-01-24T00:36:05;94556.06;;;4.58;100.00
10606;BME280;5350;42.698;23.148;2023-01-24T00:38:32;94557.22;;;4.50;100.00
10606;BME280;5350;42.698;23.148;2023-01-24T00:41:00;94559.47;;;4.47;100.00
10606;BME280;5350;42.698;23.148;2023-01-24T00:43:27;94559.69;;;4.45;100.00
10606;BME280;5350;42.698;23.148;2023-01-24T00:45:54;94556.53;;;4.43;100.00
10606;BME280;5350;42.698;23.148;2023-01-24T00:48:21;94562.53;;;4.44;100.00
10606;BME280;5350;42.698;23.148;2023-01-24T00:50:48;94561.41;;;4.40;100.00
10606;BME280;5350;42.698;23.148;2023-01-24T00:53:15;94559.81;;;4.39;100.00
10606;BME280;5350;42.698;23.148;2023-01-24T00:55:42;94550.53;;;4.43;100.00
10606;BME280;5350;42.698;23.148;2023-01-24T00:58:10;94553.13;;;4.43;100.00
10606;BME280;5350;42.698;23.148;2023-01-24T01:00:37;94565.25;;;4.37;100.00
10606;BME280;5350;42.698;23.148;2023-01-24T01:03:04;94554.38;;;4.29;100.00
10606;BME280;5350;42.698;23.148;2023-01-24T01:05:31;94550.31;;;4.33;100.00
10606;BME280;5350;42.698;23.148;2023-01-24T01:07:58;94551.34;;;4.32;100.00
10606;BME280;5350;42.698;23.148;2023-01-24T01:10:25;94545.78;;;4.17;100.00
10606;BME280;5350;42.698;23.148;2023-01-24T01:12:51;94551.56;;;4.19;100.00
10606;BME280;5350;42.698;23.148;2023-01-24T01:15:19;94547.94;;;4.20;100.00
10606;BME280;5350;42.698;23.148;2023-01-24T01:17:46;94551.22;;;4.15;100.00
10606;BME280;5350;42.698;23.148;2023-01-24T01:20:13;94546.69;;;4.11;100.00
10606;BME280;5350;42.698;23.148;2023-01-24T01:22:39;94552.56;;;4.18;100.00
10606;BME280;5350;42.698;23.148;2023-01-24T01:25:07;94556.09;;;4.23;100.00
10606;BME280;5350;42.698;23.148;2023-01-24T01:27:33;94552.13;;;4.21;100.00
10606;BME280;5350;42.698;23.148;2023-01-24T01:30:00;94555.28;;;4.11;100.00
10606;BME280;5350;42.698;23.148;2023-01-24T01:32:28;94558.59;;;4.07;100.00
10606;BME280;5350;42.698;23.148;2023-01-24T01:34:55;94559.47;;;4.00;100.00
10606;BME280;5350;42.698;23.148;2023-01-24T01:37:22;94553.69;;;3.98;100.00
10606;BME280;5350;42.698;23.148;2023-01-24T01:39:48;94560.50;;;3.99;100.00
10606;BME280;5350;42.698;23.148;2023-01-24T01:42:15;94553.59;;;4.05;100.00
10606;BME280;5350;42.698;23.148;2023-01-24T01:44:42;94558.13;;;4.10;100.00
10606;BME280;5350;42.698;23.148;2023-01-24T01:47:21;94558.34;;;4.08;100.00
10606;BME280;5350;42.698;23.148;2023-01-24T01:49:55;94550.22;;;4.04;100.00
10606;BME280;5350;42.698;23.148;2023-01-24T01:52:24;94541.34;;;3.71;100.00
10606;BME280;5350;42.698;23.148;2023-01-24T01:54:53;94565.59;;;4.06;100.00
10606;BME280;5350;42.698;23.148;2023-01-24T01:57:26;94556.53;;;3.97;100.00
10606;BME280;5350;42.698;23.148;2023-01-24T01:59:57;94550.44;;;3.91;100.00
10606;BME280;5350;42.698;23.148;2023-01-24T02:02:26;94557.44;;;3.91;100.00
10606;BME280;5350;42.698;23.148;2023-01-24T02:04:57;94558.91;;;3.98;100.00
10606;BME280;5350;42.698;23.148;2023-01-24T02:07:29;94549.75;;;3.96;100.00
10606;BME280;5350;42.698;23.148;2023-01-24T02:09:57;94555.72;;;3.96;100.00
10606;BME280;5350;42.698;23.148;2023-01-24T02:12:26;94550.09;;;3.99;100.00
10606;BME280;5350;42.698;23.148;2023-01-24T02:14:57;94549.75;;;3.96;100.00
10606;BME280;5350;42.698;23.148;2023-01-24T02:17:43;94551.31;;;3.97;100.00
10606;BME280;5350;42.698;23.148;2023-01-24T02:20:21;94551.78;;;3.94;100.00
10606;BME280;5350;42.698;23.148;2023-01-24T02:23:02;94553.69;;;3.98;100.00
10606;BME280;5350;42.698;23.148;2023-01-24T02:25:37;94553.25;;;3.90;100.00
10606;BME280;5350;42.698;23.148;2023-01-24T02:28:08;94552.13;;;3.97;100.00
10606;BME280;5350;42.698;23.148;2023-01-24T02:30:36;94546.91;;;3.97;100.00
10606;BME280;5350;42.698;23.148;2023-01-24T02:33:09;94556.44;;;4.03;100.00
10606;BME280;5350;42.698;23.148;2023-01-24T02:35:35;94553.69;;;3.98;100.00
10606;BME280;5350;42.698;23.148;2023-01-24T02:38:04;94549.06;;;4.00;100.00
10606;BME280;5350;42.698;23.148;2023-01-24T02:40:32;94559.94;;;3.97;100.00
10606;BME280;5350;42.698;23.148;2023-01-24T02:43:02;94549.97;;;3.94;100.00
10606;BME280;5350;42.698;23.148;2023-01-24T02:45:33;94551.56;;;3.95;100.00
10606;BME280;5350;42.698;23.148;2023-01-24T02:48:00;94543.84;;;3.89;100.00
10606;BME280;5350;42.698;23.148;2023-01-24T02:50:29;94550.28;;;3.86;100.00
10606;BME280;5350;42.698;23.148;2023-01-24T02:53:17;94556.19;;;3.93;100.00
10606;BME280;5350;42.698;23.148;2023-01-24T02:55:54;94552.69;;;3.99;100.00
10606;BME280;5350;42.698;23.148;2023-01-24T02:58:38;94551.56;;;4.07;100.00
10606;BME280;5350;42.698;23.148;2023-01-24T03:01:07;94553.03;;;3.91;100.00
10606;BME280;5350;42.698;23.148;2023-01-24T03:03:33;94550.53;;;3.85;100.00
10606;BME280;5350;42.698;23.148;2023-01-24T03:06:00;94550.53;;;3.85;100.00
10606;BME280;5350;42.698;23.148;2023-01-24T03:08:28;94550.53;;;3.96;100.00
10606;BME280;5350;42.698;23.148;2023-01-24T03:10:55;94549.66;;;4.02;100.00
10606;BME280;5350;42.698;23.148;2023-01-24T03:13:23;94546.34;;;3.95;100.00
10606;BME280;5350;42.698;23.148;2023-01-24T03:16:09;94551.00;;;3.93;100.00
10606;BME280;5350;42.698;23.148;2023-01-24T03:18:53;94552.56;;;3.83;100.00
10606;BME280;5350;42.698;23.148;2023-01-24T03:21:37;94543.53;;;3.85;100.00
10606;BME280;5350;42.698;23.148;2023-01-24T03:24:22;94538.09;;;3.87;100.00
10606;BME280;5350;42.698;23.148;2023-01-24T03:27:07;94550.75;;;3.83;100.00
10606;BME280;5350;42.698;23.148;2023-01-24T03:29:52;94544.84;;;3.76;100.00
10606;BME280;5350;42.698;23.148;2023-01-24T03:32:37;94552.31;;;3.84;100.00
10606;BME280;5350;42.698;23.148;2023-01-24T03:35:22;94555.69;;;3.62;100.00
10606;BME280;5350;42.698;23.148;2023-01-24T03:37:50;94549.94;;;3.71;100.00
10606;BME280;5350;42.698;23.148;2023-01-24T03:40:34;94548.34;;;3.70;100.00
10606;BME280;5350;42.698;23.148;2023-01-24T03:43:02;94540.66;;;3.64;100.00
10606;BME280;5350;42.698;23.148;2023-01-24T03:45:31;94544.63;;;3.66;100.00
10606;BME280;5350;42.698;23.148;2023-01-24T03:48:01;94534.91;;;3.73;100.00
10606;BME280;5350;42.698;23.148;2023-01-24T03:50:30;94536.34;;;3.58;100.00
10606;BME280;5350;42.698;23.148;2023-01-24T03:53:15;94526.50;;;3.71;100.00
10606;BME280;5350;42.698;23.148;2023-01-24T03:55:43;94518.84;;;3.76;100.00
10606;BME280;5350;42.698;23.148;2023-01-24T03:58:10;94521.78;;;3.68;100.00
10606;BME280;5350;42.698;23.148;2023-01-24T04:00:37;94531.94;;;3.58;100.00
10606;BME280;5350;42.698;23.148;2023-01-24T04:03:05;94523.66;;;3.61;100.00
10606;BME280;5350;42.698;23.148;2023-01-24T04:05:32;94523.56;;;3.56;100.00
10606;BME280;5350;42.698;23.148;2023-01-24T04:07:59;94529.09;;;3.48;100.00
10606;BME280;5350;42.698;23.148;2023-01-24T04:10:26;94526.84;;;3.52;100.00
10606;BME280;5350;42.698;23.148;2023-01-24T04:12:54;94538.22;;;3.39;100.00
10606;BME280;5350;42.698;23.148;2023-01-24T04:15:23;94531.63;;;3.25;100.00
10606;BME280;5350;42.698;23.148;2023-01-24T04:17:50;94521.75;;;3.15;100.00
10606;BME280;5350;42.698;23.148;2023-01-24T04:20:18;94524.44;;;3.09;100.00
10606;BME280;5350;42.698;23.148;2023-01-24T04:22:45;94530.41;;;2.98;100.00
10606;BME280;5350;42.698;23.148;2023-01-24T04:25:12;94531.88;;;2.94;100.00
10606;BME280;5350;42.698;23.148;2023-01-24T04:27:38;94522.97;;;3.01;100.00
10606;BME280;5350;42.698;23.148;2023-01-24T04:30:07;94521.31;;;2.89;100.00
10606;BME280;5350;42.698;23.148;2023-01-24T04:32:34;94525.06;;;2.93;100.00
10606;BME280;5350;42.698;23.148;2023-01-24T04:35:01;94522.94;;;2.90;100.00
10606;BME280;5350;42.698;23.148;2023-01-24T04:37:30;94530.00;;;2.83;100.00
10606;BME280;5350;42.698;23.148;2023-01-24T04:39:57;94529.88;;;3.07;100.00
10606;BME280;5350;42.698;23.148;2023-01-24T04:42:24;94527.72;;;3.04;100.00
10606;BME280;5350;42.698;23.148;2023-01-24T04:44:50;94524.00;;;3.12;100.00
10606;BME280;5350;42.698;23.148;2023-01-24T04:47:17;94527.16;;;3.02;100.00
10606;BME280;5350;42.698;23.148;2023-01-24T04:49:44;94523.28;;;2.93;100.00
10606;BME280;5350;42.698;23.148;2023-01-24T04:52:11;94530.22;;;3.11;100.00
10606;BME280;5350;42.698;23.148;2023-01-24T04:54:39;94539.28;;;3.08;100.00
10606;BME280;5350;42.698;23.148;2023-01-24T04:57:07;94527.53;;;3.17;100.00
10606;BME280;5350;42.698;23.148;2023-01-24T04:59:33;94540.25;;;3.07;100.00
10606;BME280;5350;42.698;23.148;2023-01-24T05:02:00;94544.09;;;3.05;100.00
10606;BME280;5350;42.698;23.148;2023-01-24T05:04:27;94550.44;;;3.09;100.00
10606;BME280;5350;42.698;23.148;2023-01-24T05:06:53;94556.66;;;3.08;100.00
10606;BME280;5350;42.698;23.148;2023-01-24T05:09:20;94559.03;;;3.09;100.00
10606;BME280;5350;42.698;23.148;2023-01-24T05:11:48;94561.69;;;3.21;100.00
10606;BME280;5350;42.698;23.148;2023-01-24T05:14:15;94572.09;;;3.21;100.00
10606;BME280;5350;42.698;23.148;2023-01-24T05:16:42;94562.13;;;3.18;100.00
10606;BME280;5350;42.698;23.148;2023-01-24T05:19:08;94571.38;;;3.14;100.00
10606;BME280;5350;42.698;23.148;2023-01-24T05:21:35;94583.47;;;3.08;100.00
10606;BME280;5350;42.698;23.148;2023-01-24T05:24:02;94590.16;;;3.16;100.00
10606;BME280;5350;42.698;23.148;2023-01-24T05:26:29;94587.91;;;3.19;100.00
10606;BME280;5350;42.698;23.148;2023-01-24T05:28:57;94577.00;;;3.11;100.00
10606;BME280;5350;42.698;23.148;2023-01-24T05:31:24;94589.25;;;3.22;100.00
10606;BME280;5350;42.698;23.148;2023-01-24T05:33:51;94598.28;;;3.19;100.00
10606;BME280;5350;42.698;23.148;2023-01-24T05:36:19;94599.25;;;3.25;100.00
10606;BME280;5350;42.698;23.148;2023-01-24T05:38:46;94597.78;;;3.29;100.00
10606;BME280;5350;42.698;23.148;2023-01-24T05:41:15;94605.94;;;3.33;100.00
10606;BME280;5350;42.698;23.148;2023-01-24T05:43:42;94613.06;;;3.37;100.00
10606;BME280;5350;42.698;23.148;2023-01-24T05:46:12;94610.91;;;3.34;100.00
10606;BME280;5350;42.698;23.148;2023-01-24T05:48:41;94607.63;;;3.27;100.00
10606;BME280;5350;42.698;23.148;2023-01-24T05:51:12;94613.25;;;3.24;100.00
10606;BME280;5350;42.698;23.148;2023-01-24T05:53:40;94612.91;;;3.20;100.00
10606;BME280;5350;42.698;23.148;2023-01-24T05:56:09;94623.53;;;3.19;100.00
10606;BME280;5350;42.698;23.148;2023-01-24T05:58:37;94615.53;;;3.32;100.00
10606;BME280;5350;42.698;23.148;2023-01-24T06:01:08;94614.69;;;3.20;100.00
10606;BME280;5350;42.698;23.148;2023-01-24T06:03:38;94622.72;;;3.18;100.00
10606;BME280;5350;42.698;23.148;2023-01-24T06:06:07;94620.91;;;3.19;100.00
10606;BME280;5350;42.698;23.148;2023-01-24T06:08:34;94623.38;;;3.14;100.00
10606;BME280;5350;42.698;23.148;2023-01-24T06:11:02;94624.09;;;3.21;100.00
10606;BME280;5350;42.698;23.148;2023-01-24T06:13:29;94630.03;;;3.10;100.00
10606;BME280;5350;42.698;23.148;2023-01-24T06:16:01;94636.59;;;3.12;100.00
10606;BME280;5350;42.698;23.148;2023-01-24T06:18:28;94633.03;;;3.25;100.00
10606;BME280;5350;42.698;23.148;2023-01-24T06:20:56;94636.88;;;3.22;100.00
10606;BME280;5350;42.698;23.148;2023-01-24T06:23:24;94639.25;;;3.24;100.00
10606;BME280;5350;42.698;23.148;2023-01-24T06:25:52;94640.03;;;3.24;100.00
10606;BME280;5350;42.698;23.148;2023-01-24T06:28:20;94646.34;;;3.17;100.00
10606;BME280;5350;42.698;23.148;2023-01-24T06:30:51;94652.84;;;3.08;100.00
10606;BME280;5350;42.698;23.148;2023-01-24T06:33:25;94650.25;;;2.90;100.00
10606;BME280;5350;42.698;23.148;2023-01-24T06:36:18;94662.53;;;2.83;100.00
10606;BME280;5350;42.698;23.148;2023-01-24T06:38:49;94657.22;;;2.53;100.00
10606;BME280;5350;42.698;23.148;2023-01-24T06:41:17;94658.88;;;2.48;100.00
10606;BME280;5350;42.698;23.148;2023-01-24T06:43:44;94662.16;;;2.36;100.00
10606;BME280;5350;42.698;23.148;2023-01-24T06:46:12;94661.34;;;2.36;100.00
10606;BME280;5350;42.698;23.148;2023-01-24T06:48:42;94662.66;;;2.27;100.00
10606;BME280;5350;42.698;23.148;2023-01-24T06:51:12;94653.44;;;2.31;100.00
10606;BME280;5350;42.698;23.148;2023-01-24T06:53:39;94670.38;;;2.09;100.00
10606;BME280;5350;42.698;23.148;2023-01-24T06:56:07;94670.06;;;1.99;100.00
10606;BME280;5350;42.698;23.148;2023-01-24T06:58:34;94676.44;;;1.96;100.00
10606;BME280;5350;42.698;23.148;2023-01-24T07:01:01;94680.91;;;1.89;100.00
10606;BME280;5350;42.698;23.148;2023-01-24T07:03:27;94679.94;;;1.84;100.00
10606;BME280;5350;42.698;23.148;2023-01-24T07:05:54;94689.03;;;1.68;100.00
10606;BME280;5350;42.698;23.148;2023-01-24T07:08:22;94690.19;;;1.72;100.00
10606;BME280;5350;42.698;23.148;2023-01-24T07:10:49;94693.44;;;1.61;100.00
10606;BME280;5350;42.698;23.148;2023-01-24T07:13:16;94695.63;;;1.64;100.00
10606;BME280;5350;42.698;23.148;2023-01-24T07:15:43;94697.19;;;1.65;100.00
10606;BME280;5350;42.698;23.148;2023-01-24T07:18:11;94694.78;;;1.70;100.00
10606;BME280;5350;42.698;23.148;2023-01-24T07:20:39;94695.03;;;1.62;100.00
10606;BME280;5350;42.698;23.148;2023-01-24T07:23:19;94706.41;;;1.61;100.00
10606;BME280;5350;42.698;23.148;2023-01-24T07:25:49;94704.81;;;1.60;100.00
10606;BME280;5350;42.698;23.148;2023-01-24T07:28:16;94702.47;;;1.52;100.00
10606;BME280;5350;42.698;23.148;2023-01-24T07:30:43;94710.09;;;1.40;100.00
10606;BME280;5350;42.698;23.148;2023-01-24T07:33:11;94705.94;;;1.33;100.00
10606;BME280;5350;42.698;23.148;2023-01-24T07:35:39;94709.47;;;1.45;100.00
10606;BME280;5350;42.698;23.148;2023-01-24T07:38:06;94712.69;;;1.40;100.00
10606;BME280;5350;42.698;23.148;2023-01-24T07:40:35;94705.94;;;1.39;100.00
10606;BME280;5350;42.698;23.148;2023-01-24T07:43:04;94716.22;;;1.52;100.00
10606;BME280;5350;42.698;23.148;2023-01-24T07:45:31;94712.41;;;1.55;100.00
10606;BME280;5350;42.698;23.148;2023-01-24T07:48:00;94712.63;;;1.53;100.00
10606;BME280;5350;42.698;23.148;2023-01-24T07:50:28;94710.63;;;1.55;100.00
10606;BME280;5350;42.698;23.148;2023-01-24T07:52:57;94730.84;;;1.78;100.00
10606;BME280;5350;42.698;23.148;2023-01-24T07:55:24;94731.09;;;1.70;100.00
10606;BME280;5350;42.698;23.148;2023-01-24T07:57:50;94734.88;;;1.74;100.00
10606;BME280;5350;42.698;23.148;2023-01-24T08:00:19;94730.84;;;1.78;100.00
10606;BME280;5350;42.698;23.148;2023-01-24T08:02:48;94738.06;;;1.76;100.00
10606;BME280;5350;42.698;23.148;2023-01-24T08:05:14;94724.91;;;1.71;100.00
10606;BME280;5350;42.698;23.148;2023-01-24T08:07:41;94752.50;;;1.97;100.00
10606;BME280;5350;42.698;23.148;2023-01-24T08:10:09;94741.47;;;1.70;100.00
10606;BME280;5350;42.698;23.148;2023-01-24T08:12:36;94750.25;;;1.69;100.00
10606;BME280;5350;42.698;23.148;2023-01-24T08:15:03;94746.06;;;1.75;100.00
10606;BME280;5350;42.698;23.148;2023-01-24T08:17:35;94747.78;;;1.87;100.00
10606;BME280;5350;42.698;23.148;2023-01-24T08:20:02;94749.22;;;1.77;100.00
10606;BME280;5350;42.698;23.148;2023-01-24T08:22:29;94745.59;;;1.84;100.00
10606;BME280;5350;42.698;23.148;2023-01-24T08:24:55;94744.59;;;1.85;100.00
10606;BME280;5350;42.698;23.148;2023-01-24T08:27:22;94746.72;;;1.95;100.00
10606;BME280;5350;42.698;23.148;2023-01-24T08:29:49;94755.28;;;2.02;100.00
10606;BME280;5350;42.698;23.148;2023-01-24T08:32:15;94754.25;;;2.03;100.00
10606;BME280;5350;42.698;23.148;2023-01-24T08:34:43;94754.41;;;2.14;100.00
10606;BME280;5350;42.698;23.148;2023-01-24T08:37:10;94761.78;;;2.11;100.00
10606;BME280;5350;42.698;23.148;2023-01-24T08:39:37;94760.44;;;2.08;100.00
10606;BME280;5350;42.698;23.148;2023-01-24T08:42:04;94758.88;;;2.01;100.00
10606;BME280;5350;42.698;23.148;2023-01-24T08:44:30;94758.50;;;1.97;100.00
10606;BME280;5350;42.698;23.148;2023-01-24T08:46:57;94758.03;;;2.07;100.00
10606;BME280;5350;42.698;23.148;2023-01-24T08:49:24;94760.59;;;2.13;100.00
10606;BME280;5350;42.698;23.148;2023-01-24T08:51:52;94762.19;;;2.14;100.00
10606;BME280;5350;42.698;23.148;2023-01-24T08:54:24;94762.16;;;2.21;100.00
10606;BME280;5350;42.698;23.148;2023-01-24T08:56:50;94767.72;;;2.24;100.00
10606;BME280;5350;42.698;23.148;2023-01-24T08:59:17;94764.50;;;2.29;100.00
10606;BME280;5350;42.698;23.148;2023-01-24T09:01:44;94764.09;;;2.25;100.00
10606;BME280;5350;42.698;23.148;2023-01-24T09:04:11;94762.94;;;2.21;100.00
10606;BME280;5350;42.698;23.148;2023-01-24T09:06:38;94769.47;;;2.30;100.00
10606;BME280;5350;42.698;23.148;2023-01-24T09:09:06;94760.50;;;2.26;100.00
10606;BME280;5350;42.698;23.148;2023-01-24T09:11:33;94757.25;;;2.37;100.00
10606;BME280;5350;42.698;23.148;2023-01-24T09:13:59;94766.28;;;2.28;100.00
10606;BME280;5350;42.698;23.148;2023-01-24T09:16:26;94765.44;;;2.34;100.00
10606;BME280;5350;42.698;23.148;2023-01-24T09:18:53;94762.00;;;2.40;100.00
10606;BME280;5350;42.698;23.148;2023-01-24T09:21:20;94756.75;;;2.47;100.00
10606;BME280;5350;42.698;23.148;2023-01-24T09:23:47;94761.47;;;2.57;100.00
10606;BME280;5350;42.698;23.148;2023-01-24T09:26:15;94759.47;;;2.59;100.00
10606;BME280;5350;42.698;23.148;2023-01-24T09:28:42;94751.84;;;2.64;100.00
10606;BME280;5350;42.698;23.148;2023-01-24T09:31:09;94754.34;;;2.52;100.00
10606;BME280;5350;42.698;23.148;2023-01-24T09:33:36;94752.63;;;2.39;100.00
10606;BME280;5350;42.698;23.148;2023-01-24T09:36:03;94747.03;;;2.36;100.00
10606;BME280;5350;42.698;23.148;2023-01-24T09:38:31;94754.78;;;2.42;100.00
10606;BME280;5350;42.698;23.148;2023-01-24T09:41:06;94757.06;;;2.32;100.00
10606;BME280;5350;42.698;23.148;2023-01-24T09:43:46;94747.81;;;2.12;100.00
10606;BME280;5350;42.698;23.148;2023-01-24T09:46:22;94750.25;;;2.07;100.00
10606;BME280;5350;42.698;23.148;2023-01-24T09:49:09;94742.69;;;2.05;100.00
10606;BME280;5350;42.698;23.148;2023-01-24T09:51:41;94751.84;;;2.08;100.00
10606;BME280;5350;42.698;23.148;2023-01-24T09:54:15;94736.94;;;1.97;100.00
10606;BME280;5350;42.698;23.148;2023-01-24T09:56:45;94741.47;;;2.08;100.00
10606;BME280;5350;42.698;23.148;2023-01-24T09:59:20;94744.69;;;2.03;100.00
10606;BME280;5350;42.698;23.148;2023-01-24T10:01:48;94742.50;;;2.00;100.00
10606;BME280;5350;42.698;23.148;2023-01-24T10:04:17;94737.66;;;2.10;100.00
10606;BME280;5350;42.698;23.148;2023-01-24T10:07:03;94731.09;;;2.08;100.00
10606;BME280;5350;42.698;23.148;2023-01-24T10:09:43;94728.63;;;2.13;100.00
10606;BME280;5350;42.698;23.148;2023-01-24T10:12:24;94730.78;;;2.22;100.00
10606;BME280;5350;42.698;23.148;2023-01-24T10:15:01;94729.84;;;2.17;100.00
10606;BME280;5350;42.698;23.148;2023-01-24T10:17:48;94723.41;;;2.19;100.00
10606;BME280;5350;42.698;23.148;2023-01-24T10:20:31;94722.16;;;2.28;100.00
10606;BME280;5350;42.698;23.148;2023-01-24T10:23:07;94718.97;;;2.26;100.00
10606;BME280;5350;42.698;23.148;2023-01-24T10:25:48;94720.09;;;2.37;100.00
10606;BME280;5350;42.698;23.148;2023-01-24T10:28:19;94710.56;;;2.31;100.00
10606;BME280;5350;42.698;23.148;2023-01-24T10:30:55;94712.06;;;2.38;100.00
10606;BME280;5350;42.698;23.148;2023-01-24T10:33:27;94707.25;;;2.42;100.00
10606;BME280;5350;42.698;23.148;2023-01-24T10:35:58;94706.47;;;2.41;100.00
10606;BME280;5350;42.698;23.148;2023-01-24T10:38:26;94702.06;;;2.42;100.00
10606;BME280;5350;42.698;23.148;2023-01-24T10:40:55;94707.63;;;2.46;100.00
10606;BME280;5350;42.698;23.148;2023-01-24T10:43:25;94702.97;;;2.29;100.00
10606;BME280;5350;42.698;23.148;2023-01-24T10:46:04;94707.50;;;2.34;100.00
10606;BME280;5350;42.698;23.148;2023-01-24T10:48:39;94706.97;;;2.25;100.00
10606;BME280;5350;42.698;23.148;2023-01-24T10:51:13;94709.00;;;2.23;100.00
10606;BME280;5350;42.698;23.148;2023-01-24T10:53:40;94701.34;;;2.35;100.00
10606;BME280;5350;42.698;23.148;2023-01-24T10:56:07;94702.81;;;2.24;100.00
10606;BME280;5350;42.698;23.148;2023-01-24T10:58:35;94699.31;;;2.37;100.00
10606;BME280;5350;42.698;23.148;2023-01-24T11:01:14;94696.66;;;2.43;100.00
10606;BME280;5350;42.698;23.148;2023-01-24T11:03:43;94689.50;;;2.39;100.00
10606;BME280;5350;42.698;23.148;2023-01-24T11:06:22;94686.13;;;2.38;100.00
10606;BME280;5350;42.698;23.148;2023-01-24T11:08:53;94682.38;;;2.53;100.00
10606;BME280;5350;42.698;23.148;2023-01-24T11:11:22;94684.56;;;2.56;100.00
10606;BME280;5350;42.698;23.148;2023-01-24T11:13:54;94689.19;;;2.54;100.00
10606;BME280;5350;42.698;23.148;2023-01-24T11:16:25;94685.94;;;2.58;100.00
10606;BME280;5350;42.698;23.148;2023-01-24T11:18:56;94682.84;;;2.68;100.00
10606;BME280;5350;42.698;23.148;2023-01-24T11:21:23;94688.50;;;2.83;100.00
10606;BME280;5350;42.698;23.148;2023-01-24T11:23:59;94685.63;;;2.91;100.00
10606;BME280;5350;42.698;23.148;2023-01-24T11:26:28;94682.94;;;2.79;100.00
10606;BME280;5350;42.698;23.148;2023-01-24T11:28:56;94684.03;;;2.90;100.00
10606;BME280;5350;42.698;23.148;2023-01-24T11:31:30;94686.34;;;2.98;100.00
10606;BME280;5350;42.698;23.148;2023-01-24T11:34:18;94674.72;;;3.00;100.00
10606;BME280;5350;42.698;23.148;2023-01-24T11:36:58;94677.09;;;2.84;100.00
10606;BME280;5350;42.698;23.148;2023-01-24T11:39:36;94677.94;;;2.78;100.00
10606;BME280;5350;42.698;23.148;2023-01-24T11:42:13;94677.75;;;2.79;100.00
10606;BME280;5350;42.698;23.148;2023-01-24T11:44:59;94670.97;;;2.78;100.00
10606;BME280;5350;42.698;23.148;2023-01-24T11:47:33;94671.06;;;2.90;100.00
10606;BME280;5350;42.698;23.148;2023-01-24T11:50:16;94664.91;;;2.84;100.00
10606;BME280;5350;42.698;23.148;2023-01-24T11:52:55;94669.28;;;2.84;100.00
10606;BME280;5350;42.698;23.148;2023-01-24T11:55:38;94671.41;;;2.75;100.00
10606;BME280;5350;42.698;23.148;2023-01-24T12:01:10;94672.16;;;2.76;100.00
10606;BME280;5350;42.698;23.148;2023-01-24T12:04:02;94667.25;;;2.68;100.00
10606;BME280;5350;42.698;23.148;2023-01-24T12:06:42;94670.16;;;2.78;100.00
10606;BME280;5350;42.698;23.148;2023-01-24T12:09:19;94671.31;;;2.82;100.00
10606;BME280;5350;42.698;23.148;2023-01-24T12:11:55;94666.97;;;2.76;100.00
10606;BME280;5350;42.698;23.148;2023-01-24T12:14:49;94662.94;;;2.80;100.00
10606;BME280;5350;42.698;23.148;2023-01-24T12:17:29;94665.69;;;2.85;100.00
10606;BME280;5350;42.698;23.148;2023-01-24T12:20:16;94662.81;;;2.75;100.00
10606;BME280;5350;42.698;23.148;2023-01-24T12:22:49;94666.47;;;2.67;100.00
10606;BME280;5350;42.698;23.148;2023-01-24T12:25:22;94668.22;;;2.73;100.00
10606;BME280;5350;42.698;23.148;2023-01-24T12:27:50;94670.38;;;2.76;100.00
10606;BME280;5350;42.698;23.148;2023-01-24T12:30:25;94669.28;;;2.84;100.00
10606;BME280;5350;42.698;23.148;2023-01-24T12:32:59;94666.63;;;2.90;100.00
10606;BME280;5350;42.698;23.148;2023-01-24T12:35:33;94675.06;;;2.86;100.00
10606;BME280;5350;42.698;23.148;2023-01-24T12:38:04;94675.63;;;2.70;100.00
10606;BME280;5350;42.698;23.148;2023-01-24T12:40:44;94678.09;;;2.65;100.00
10606;BME280;5350;42.698;23.148;2023-01-24T12:43:18;94663.16;;;2.60;100.00
10606;BME280;5350;42.698;23.148;2023-01-24T12:45:54;94676.84;;;2.67;100.00
10606;BME280;5350;42.698;23.148;2023-01-24T12:48:32;94672.25;;;2.69;100.00
10606;BME280;5350;42.698;23.148;2023-01-24T12:51:09;94668.22;;;2.73;100.00
10606;BME280;5350;42.698;23.148;2023-01-24T12:53:43;94672.69;;;2.84;100.00
10606;BME280;5350;42.698;23.148;2023-01-24T12:56:20;94664.53;;;2.81;100.00
10606;BME280;5350;42.698;23.148;2023-01-24T12:58:49;94664.41;;;2.94;100.00
10606;BME280;5350;42.698;23.148;2023-01-24T13:01:34;94665.75;;;2.78;100.00
10606;BME280;5350;42.698;23.148;2023-01-24T13:04:14;94663.69;;;2.87;100.00
10606;BME280;5350;42.698;23.148;2023-01-24T13:06:52;94663.09;;;2.85;100.00
10606;BME280;5350;42.698;23.148;2023-01-24T13:09:24;94661.81;;;2.94;100.00
10606;BME280;5350;42.698;23.148;2023-01-24T13:11:54;94667.00;;;2.94;100.00
10606;BME280;5350;42.698;23.148;2023-01-24T13:14:24;94664.03;;;2.90;100.00
10606;BME280;5350;42.698;23.148;2023-01-24T13:17:16;94670.47;;;2.88;100.00
10606;BME280;5350;42.698;23.148;2023-01-24T13:20:03;94675.63;;;2.70;100.00
10606;BME280;5350;42.698;23.148;2023-01-24T13:22:41;94674.34;;;2.61;100.00